createdAt,value
2023-05-09T00:00:48.413Z,0.00
2023-05-09T00:01:48.714Z,0.00
2023-05-09T00:02:48.489Z,0.00
2023-05-09T00:03:48.509Z,0.00
2023-05-09T00:04:48.570Z,0.00
2023-05-09T00:05:48.566Z,0.00
2023-05-09T00:06:48.594Z,0.00
2023-05-09T00:07:48.622Z,0.00
2023-05-09T00:09:48.798Z,0.00
2023-05-09T00:10:48.733Z,0.00
2023-05-09T00:11:48.750Z,0.00
2023-05-09T00:12:48.832Z,0.00
2023-05-09T00:13:48.810Z,0.00
2023-05-09T00:14:48.834Z,0.00
2023-05-09T00:15:49.163Z,0.00
2023-05-09T00:16:48.978Z,0.00
2023-05-09T00:17:48.954Z,0.00
2023-05-09T00:18:48.961Z,0.00
2023-05-09T00:19:48.988Z,0.00
2023-05-09T00:20:49.328Z,0.00
2023-05-09T00:21:49.051Z,0.00
2023-05-09T00:22:49.385Z,0.00
2023-05-09T00:23:49.109Z,0.00
2023-05-09T00:24:49.131Z,0.00
2023-05-09T00:25:49.305Z,0.00
2023-05-09T00:26:49.193Z,0.00
2023-05-09T00:27:49.221Z,0.00
2023-05-09T00:28:49.252Z,0.00
2023-05-09T00:30:49.320Z,0.00
2023-05-09T00:31:49.366Z,0.00
2023-05-09T00:32:49.463Z,0.00
2023-05-09T00:33:49.407Z,0.00
2023-05-09T00:34:49.433Z,0.00
2023-05-09T00:35:49.471Z,0.00
2023-05-09T00:36:49.808Z,0.00
2023-05-09T00:37:49.530Z,0.00
2023-05-09T00:38:49.564Z,0.00
2023-05-09T00:39:49.584Z,0.00
2023-05-09T00:40:49.643Z,0.00
2023-05-09T00:41:49.764Z,0.00
2023-05-09T00:42:49.924Z,0.00
2023-05-09T00:43:49.712Z,0.00
2023-05-09T00:44:49.745Z,0.00
2023-05-09T00:46:49.798Z,0.00
2023-05-09T00:47:49.849Z,0.00
2023-05-09T00:48:50.164Z,0.00
2023-05-09T00:49:50.037Z,0.00
2023-05-09T00:50:49.921Z,0.00
2023-05-09T00:51:50.035Z,0.00
2023-05-09T00:52:49.996Z,0.00
2023-05-09T00:53:50.136Z,0.00
2023-05-09T00:54:50.440Z,0.00
2023-05-09T00:55:50.090Z,0.00
2023-05-09T00:56:50.175Z,0.00
2023-05-09T00:57:50.272Z,0.00
2023-05-09T00:58:50.176Z,0.00
2023-05-09T00:59:50.229Z,0.00
2023-05-09T01:00:50.228Z,0.00
2023-05-09T01:01:50.673Z,0.00
2023-05-09T01:02:50.374Z,0.00
2023-05-09T01:03:50.382Z,0.00
2023-05-09T01:04:50.362Z,0.00
2023-05-09T01:05:50.376Z,0.00
2023-05-09T01:06:50.401Z,0.00
2023-05-09T01:07:50.446Z,0.00
2023-05-09T01:08:50.708Z,0.00
2023-05-09T01:09:50.498Z,0.00
2023-05-09T01:10:50.518Z,0.00
2023-05-09T01:11:50.559Z,0.00
2023-05-09T01:12:50.658Z,0.00
2023-05-09T01:13:50.736Z,0.00
2023-05-09T01:14:50.775Z,0.00
2023-05-09T01:15:51.076Z,0.00
2023-05-09T01:16:50.884Z,0.00
2023-05-09T01:17:50.785Z,0.00
2023-05-09T01:18:50.762Z,0.00
2023-05-09T01:20:50.833Z,0.00
2023-05-09T01:21:50.852Z,0.00
2023-05-09T01:22:51.208Z,0.00
2023-05-09T01:23:50.961Z,0.00
2023-05-09T01:24:50.968Z,0.00
2023-05-09T01:25:51.048Z,0.00
2023-05-09T01:26:51.037Z,0.00
2023-05-09T01:27:51.060Z,0.00
2023-05-09T01:28:51.064Z,0.00
2023-05-09T01:29:51.571Z,0.00
2023-05-09T01:30:51.204Z,0.00
2023-05-09T01:31:51.304Z,0.00
2023-05-09T01:32:51.284Z,0.00
2023-05-09T01:33:51.235Z,0.00
2023-05-09T01:34:51.300Z,0.00
2023-05-09T01:35:51.287Z,0.00
2023-05-09T01:36:51.717Z,0.00
2023-05-09T01:37:51.410Z,0.00
2023-05-09T01:38:51.605Z,0.00
2023-05-09T01:39:51.413Z,0.00
2023-05-09T01:40:51.517Z,0.00
2023-05-09T01:42:51.618Z,0.00
2023-05-09T01:43:51.891Z,0.00
2023-05-09T01:44:51.652Z,0.00
2023-05-09T01:45:51.723Z,0.00
2023-05-09T01:46:51.722Z,0.00
2023-05-09T01:47:51.764Z,0.00
2023-05-09T01:48:51.664Z,0.00
2023-05-09T01:49:51.696Z,0.00
2023-05-09T01:50:52.032Z,0.00
2023-05-09T01:51:51.768Z,0.00
2023-05-09T01:52:51.791Z,0.00
2023-05-09T01:53:51.821Z,0.00
2023-05-09T01:54:51.848Z,0.00
2023-05-09T01:55:51.878Z,0.00
2023-05-09T01:56:51.908Z,0.00
2023-05-09T01:57:52.244Z,0.00
2023-05-09T01:58:51.968Z,0.00
2023-05-09T01:59:52.030Z,0.00
2023-05-09T02:00:52.112Z,0.00
2023-05-09T02:01:52.210Z,0.00
2023-05-09T02:02:52.176Z,0.00
2023-05-09T02:03:52.132Z,0.00
2023-05-09T02:04:52.542Z,0.00
2023-05-09T02:05:52.216Z,0.00
2023-05-09T02:07:52.259Z,0.00
2023-05-09T02:08:52.301Z,0.00
2023-05-09T02:09:52.311Z,0.00
2023-05-09T02:10:52.334Z,0.00
2023-05-09T02:11:52.821Z,0.00
2023-05-09T02:12:52.429Z,0.00
2023-05-09T02:13:52.441Z,0.00
2023-05-09T02:14:52.469Z,0.00
2023-05-09T02:15:52.489Z,0.00
2023-05-09T02:16:52.538Z,0.00
2023-05-09T02:17:52.734Z,0.00
2023-05-09T02:18:52.880Z,0.00
2023-05-09T02:19:52.628Z,0.00
2023-05-09T02:20:52.666Z,0.00
2023-05-09T02:21:52.683Z,0.00
2023-05-09T02:22:52.701Z,0.00
2023-05-09T02:23:52.727Z,0.00
2023-05-09T02:24:52.781Z,0.00
2023-05-09T02:25:53.104Z,0.00
2023-05-09T02:26:52.832Z,0.00
2023-05-09T02:27:52.859Z,0.00
2023-05-09T02:28:52.877Z,0.00
2023-05-09T02:29:52.893Z,0.00
2023-05-09T02:30:52.936Z,0.00
2023-05-09T02:31:53.034Z,0.00
2023-05-09T02:32:53.430Z,0.00
2023-05-09T02:33:53.183Z,0.00
2023-05-09T02:35:53.084Z,0.00
2023-05-09T02:36:53.121Z,0.00
2023-05-09T02:37:53.166Z,0.00
2023-05-09T02:40:53.477Z,0.00
2023-05-09T02:41:53.255Z,0.00
2023-05-09T02:42:53.289Z,0.00
2023-05-09T02:43:53.364Z,0.00
2023-05-09T02:44:53.396Z,0.00
2023-05-09T02:45:53.424Z,0.00
2023-05-09T02:46:53.427Z,0.00
2023-05-09T02:47:53.801Z,0.00
2023-05-09T02:48:53.462Z,0.00
2023-05-09T02:49:53.614Z,0.00
2023-05-09T02:50:53.529Z,0.00
2023-05-09T02:51:53.558Z,0.00
2023-05-09T02:52:53.588Z,0.00
2023-05-09T02:53:53.620Z,0.00
2023-05-09T02:54:53.936Z,0.00
2023-05-09T02:55:53.681Z,0.00
2023-05-09T02:56:53.809Z,0.00
2023-05-09T02:58:53.766Z,0.00
2023-05-09T02:59:53.795Z,0.00
2023-05-09T03:00:54.174Z,0.00
2023-05-09T03:01:53.870Z,0.00
2023-05-09T03:02:53.969Z,0.00
2023-05-09T03:03:54.073Z,0.00
2023-05-09T03:04:53.940Z,0.00
2023-05-09T03:05:54.097Z,0.00
2023-05-09T03:06:54.330Z,0.00
2023-05-09T03:07:54.039Z,0.00
2023-05-09T03:08:54.077Z,0.00
2023-05-09T03:09:54.092Z,0.00
2023-05-09T03:10:54.123Z,0.00
2023-05-09T03:11:54.153Z,0.00
2023-05-09T03:12:54.542Z,0.00
2023-05-09T03:13:54.212Z,0.00
2023-05-09T03:14:54.253Z,0.00
2023-05-09T03:15:54.346Z,0.00
2023-05-09T03:16:54.310Z,0.00
2023-05-09T03:17:54.358Z,0.00
2023-05-09T03:18:54.367Z,0.00
2023-05-09T03:19:54.649Z,0.00
2023-05-09T03:20:54.428Z,0.00
2023-05-09T03:21:54.575Z,0.00
2023-05-09T03:22:54.506Z,0.00
2023-05-09T03:23:54.514Z,0.00
2023-05-09T03:24:54.554Z,0.00
2023-05-09T03:25:54.570Z,0.00
2023-05-09T03:26:54.910Z,0.00
2023-05-09T03:27:54.645Z,0.00
2023-05-09T03:28:54.684Z,0.00
2023-05-09T03:29:54.749Z,0.00
2023-05-09T03:30:54.767Z,0.00
2023-05-09T03:31:54.922Z,0.00
2023-05-09T03:32:54.829Z,0.00
2023-05-09T03:33:55.117Z,0.00
2023-05-09T03:34:54.952Z,0.00
2023-05-09T03:35:54.884Z,0.00
2023-05-09T03:36:54.920Z,0.00
2023-05-09T03:37:55.054Z,0.00
2023-05-09T03:38:54.989Z,0.00
2023-05-09T03:39:55.016Z,0.00
2023-05-09T03:40:55.335Z,0.00
2023-05-09T03:41:55.062Z,0.00
2023-05-09T03:42:55.087Z,0.00
2023-05-09T03:43:55.157Z,0.00
2023-05-09T03:44:55.168Z,0.00
2023-05-09T03:45:55.235Z,0.00
2023-05-09T03:46:55.304Z,0.00
2023-05-09T03:47:55.596Z,0.00
2023-05-09T03:48:55.373Z,0.00
2023-05-09T03:49:55.317Z,0.00
2023-05-09T03:50:55.339Z,0.00
2023-05-09T03:51:55.354Z,0.00
2023-05-09T03:52:55.468Z,0.00
2023-05-09T03:53:55.546Z,0.00
2023-05-09T03:54:55.755Z,0.00
2023-05-09T03:55:55.487Z,0.00
2023-05-09T03:56:55.516Z,0.00
2023-05-09T03:57:55.668Z,0.00
2023-05-09T03:58:55.608Z,0.00
2023-05-09T03:59:55.622Z,0.00
2023-05-09T04:00:55.643Z,0.00
2023-05-09T04:02:56.088Z,0.00
2023-05-09T04:03:55.745Z,0.00
2023-05-09T04:04:55.833Z,0.00
2023-05-09T04:05:55.827Z,0.00
2023-05-09T04:06:55.967Z,0.00
2023-05-09T04:07:55.917Z,0.00
2023-05-09T04:09:56.105Z,0.00
2023-05-09T04:10:55.941Z,0.00
2023-05-09T04:11:56.039Z,0.00
2023-05-09T04:12:56.084Z,0.00
2023-05-09T04:13:56.107Z,0.00
2023-05-09T04:14:56.112Z,0.00
2023-05-09T04:15:56.323Z,0.00
2023-05-09T04:16:56.483Z,0.00
2023-05-09T04:17:56.210Z,0.00
2023-05-09T04:18:56.165Z,5.63
2023-05-09T04:19:56.210Z,5.63
2023-05-09T04:20:56.223Z,5.63
2023-05-09T04:21:56.258Z,5.63
2023-05-09T04:22:56.497Z,5.63
2023-05-09T04:23:56.617Z,5.63
2023-05-09T04:24:56.410Z,5.63
2023-05-09T04:25:56.490Z,5.63
2023-05-09T04:26:56.400Z,5.63
2023-05-09T04:27:56.461Z,5.63
2023-05-09T04:28:56.475Z,5.63
2023-05-09T04:29:56.496Z,5.63
2023-05-09T04:30:56.879Z,5.63
2023-05-09T04:31:56.668Z,11.25
2023-05-09T04:32:56.598Z,11.25
2023-05-09T04:33:56.612Z,11.25
2023-05-09T04:34:56.639Z,11.25
2023-05-09T04:35:56.671Z,11.25
2023-05-09T04:36:56.701Z,11.25
2023-05-09T04:37:57.035Z,11.25
2023-05-09T04:38:56.759Z,11.25
2023-05-09T04:39:56.801Z,11.25
2023-05-09T04:40:56.838Z,11.25
2023-05-09T04:41:56.975Z,11.25
2023-05-09T04:42:56.889Z,11.25
2023-05-09T04:43:56.910Z,11.25
2023-05-09T04:44:57.257Z,16.88
2023-05-09T04:45:56.992Z,16.88
2023-05-09T04:46:57.003Z,16.88
2023-05-09T04:47:57.077Z,16.88
2023-05-09T04:48:57.066Z,16.88
2023-05-09T04:49:57.107Z,16.88
2023-05-09T04:50:57.115Z,16.88
2023-05-09T04:51:57.450Z,16.88
2023-05-09T04:52:57.182Z,16.88
2023-05-09T04:53:57.235Z,16.88
2023-05-09T04:54:57.240Z,16.88
2023-05-09T04:55:57.272Z,22.50
2023-05-09T04:57:10.000Z,22.50
2023-05-09T04:57:57.456Z,22.50
2023-05-09T04:58:57.618Z,22.50
2023-05-09T04:59:57.399Z,22.50
2023-05-09T05:00:57.419Z,22.50
2023-05-09T05:01:57.501Z,22.50
2023-05-09T05:02:57.549Z,22.50
2023-05-09T05:03:57.518Z,22.50
2023-05-09T05:05:10.247Z,22.50
2023-05-09T05:05:57.569Z,22.50
2023-05-09T05:06:57.599Z,22.50
2023-05-09T05:07:57.632Z,22.50
2023-05-09T05:08:57.755Z,22.50
2023-05-09T05:09:57.696Z,22.50
2023-05-09T05:10:57.730Z,22.50
2023-05-09T05:12:02.057Z,28.13
2023-05-09T05:12:57.835Z,28.13
2023-05-09T05:13:57.930Z,28.13
2023-05-09T05:15:57.869Z,28.13
2023-05-09T05:17:58.253Z,33.75
2023-05-09T05:18:57.954Z,33.75
2023-05-09T05:19:57.986Z,33.75
2023-05-09T05:20:58.016Z,39.38
2023-05-09T05:22:58.088Z,39.38
2023-05-09T05:23:58.403Z,39.38
2023-05-09T05:24:58.246Z,39.38
2023-05-09T05:25:58.169Z,39.38
2023-05-09T05:26:58.196Z,39.38
2023-05-09T05:27:58.228Z,39.38
2023-05-09T05:28:58.268Z,39.38
2023-05-09T05:29:58.306Z,39.38
2023-05-09T05:30:58.615Z,39.38
2023-05-09T05:31:58.395Z,39.38
2023-05-09T05:32:58.408Z,45.00
2023-05-09T05:33:58.401Z,45.00
2023-05-09T05:34:58.434Z,45.00
2023-05-09T05:35:58.461Z,45.00
2023-05-09T05:36:58.492Z,45.00
2023-05-09T05:37:58.827Z,45.00
2023-05-09T05:39:58.588Z,50.63
2023-05-09T05:40:58.618Z,50.63
2023-05-09T05:41:58.652Z,50.63
2023-05-09T05:42:58.695Z,56.25
2023-05-09T05:43:58.705Z,56.25
2023-05-09T05:44:59.041Z,56.25
2023-05-09T05:45:58.916Z,56.25
2023-05-09T05:46:58.791Z,61.88
2023-05-09T05:48:58.858Z,61.88
2023-05-09T05:49:58.873Z,67.50
2023-05-09T05:50:58.917Z,73.13
2023-05-09T05:51:59.239Z,67.50
2023-05-09T05:52:58.970Z,67.50
2023-05-09T05:53:58.998Z,67.50
2023-05-09T05:54:59.032Z,61.88
2023-05-09T05:55:59.064Z,61.88
2023-05-09T05:56:59.094Z,61.88
2023-05-09T05:57:59.126Z,61.88
2023-05-09T05:58:59.451Z,61.88
2023-05-09T05:59:59.187Z,61.88
2023-05-09T06:00:59.231Z,61.88
2023-05-09T06:01:59.413Z,67.50
2023-05-09T06:02:59.417Z,67.50
2023-05-09T06:03:59.360Z,67.50
2023-05-09T06:04:59.335Z,73.13
2023-05-09T06:05:59.355Z,73.13
2023-05-09T06:06:59.390Z,73.13
2023-05-09T06:07:59.431Z,73.13
2023-05-09T06:08:59.447Z,73.13
2023-05-09T06:09:59.492Z,73.13
2023-05-09T06:10:59.506Z,78.75
2023-05-09T06:11:59.548Z,78.75
2023-05-09T06:12:59.604Z,78.75
2023-05-09T06:13:59.610Z,78.75
2023-05-09T06:14:59.680Z,78.75
2023-05-09T06:16:07.707Z,78.75
2023-05-09T06:16:59.743Z,78.75
2023-05-09T06:18:00.092Z,78.75
2023-05-09T06:18:59.752Z,78.75
2023-05-09T06:19:59.777Z,78.75
2023-05-09T06:20:59.810Z,84.38
2023-05-09T06:21:59.840Z,84.38
2023-05-09T06:22:59.867Z,84.38
2023-05-09T06:24:07.654Z,90.00
2023-05-09T06:25:00.042Z,90.00
2023-05-09T06:25:59.976Z,90.00
2023-05-09T06:26:59.999Z,90.00
2023-05-09T06:28:00.040Z,90.00
2023-05-09T06:30:04.169Z,95.63
2023-05-09T06:31:00.196Z,95.63
2023-05-09T06:32:00.205Z,95.63
2023-05-09T06:33:00.349Z,95.63
2023-05-09T06:34:00.341Z,95.63
2023-05-09T06:35:00.267Z,101.25
2023-05-09T06:37:00.308Z,101.25
2023-05-09T06:38:00.324Z,101.25
2023-05-09T06:39:00.389Z,101.25
2023-05-09T06:41:00.421Z,95.63
2023-05-09T06:42:00.750Z,101.25
2023-05-09T06:43:00.475Z,101.25
2023-05-09T06:44:00.509Z,101.25
2023-05-09T06:45:00.591Z,101.25
2023-05-09T06:46:00.607Z,101.25
2023-05-09T06:47:00.610Z,101.25
2023-05-09T06:48:00.649Z,101.25
2023-05-09T06:49:00.910Z,95.63
2023-05-09T06:51:00.857Z,95.63
2023-05-09T06:52:00.795Z,101.25
2023-05-09T06:53:00.785Z,106.88
2023-05-09T06:54:00.818Z,106.88
2023-05-09T06:55:00.848Z,106.88
2023-05-09T06:56:01.192Z,106.88
2023-05-09T06:57:00.913Z,106.88
2023-05-09T06:58:00.939Z,106.88
2023-05-09T06:59:00.969Z,106.88
2023-05-09T07:00:01.001Z,106.88
2023-05-09T07:01:01.032Z,106.88
2023-05-09T07:02:01.160Z,106.88
2023-05-09T07:03:01.480Z,112.50
2023-05-09T07:04:01.134Z,112.50
2023-05-09T07:05:01.274Z,112.50
2023-05-09T07:06:01.179Z,112.50
2023-05-09T07:07:01.331Z,112.50
2023-05-09T07:08:01.253Z,118.13
2023-05-09T07:09:01.290Z,118.13
2023-05-09T07:10:10.462Z,118.13
2023-05-09T07:11:01.344Z,118.13
2023-05-09T07:12:01.370Z,123.75
2023-05-09T07:13:01.434Z,123.75
2023-05-09T07:14:01.432Z,129.38
2023-05-09T07:15:01.461Z,129.38
2023-05-09T07:16:01.533Z,129.38
2023-05-09T07:17:18.203Z,112.50
2023-05-09T07:18:01.590Z,118.13
2023-05-09T07:19:01.632Z,118.13
2023-05-09T07:20:01.674Z,118.13
2023-05-09T07:21:01.674Z,112.50
2023-05-09T07:23:02.179Z,118.13
2023-05-09T07:24:01.762Z,118.13
2023-05-09T07:25:01.773Z,118.13
2023-05-09T07:26:01.821Z,112.50
2023-05-09T07:27:01.835Z,112.50
2023-05-09T07:28:01.897Z,112.50
2023-05-09T07:29:02.321Z,112.50
2023-05-09T07:30:01.949Z,112.50
2023-05-09T07:31:01.994Z,112.50
2023-05-09T07:33:02.147Z,106.88
2023-05-09T07:34:02.059Z,106.88
2023-05-09T07:35:02.393Z,106.88
2023-05-09T07:36:02.112Z,106.88
2023-05-09T07:37:02.145Z,106.88
2023-05-09T07:38:02.189Z,106.88
2023-05-09T07:39:02.322Z,112.50
2023-05-09T07:40:02.257Z,112.50
2023-05-09T07:41:02.584Z,112.50
2023-05-09T07:42:02.300Z,112.50
2023-05-09T07:43:02.347Z,112.50
2023-05-09T07:44:02.357Z,112.50
2023-05-09T07:45:02.398Z,112.50
2023-05-09T07:46:02.481Z,112.50
2023-05-09T07:47:02.449Z,106.88
2023-05-09T07:48:02.849Z,106.88
2023-05-09T07:49:02.514Z,106.88
2023-05-09T07:50:02.568Z,101.25
2023-05-09T07:51:02.588Z,101.25
2023-05-09T07:52:02.601Z,101.25
2023-05-09T07:53:02.637Z,95.63
2023-05-09T07:54:02.665Z,95.63
2023-05-09T07:55:03.069Z,95.63
2023-05-09T07:56:02.748Z,95.63
2023-05-09T07:57:02.766Z,95.63
2023-05-09T07:58:02.889Z,95.63
2023-05-09T07:59:02.826Z,95.63
2023-05-09T08:00:02.864Z,95.63
2023-05-09T08:01:02.893Z,95.63
2023-05-09T08:02:03.235Z,95.63
2023-05-09T08:03:03.185Z,95.63
2023-05-09T08:04:03.059Z,95.63
2023-05-09T08:05:03.017Z,95.63
2023-05-09T08:06:03.042Z,95.63
2023-05-09T08:07:03.080Z,95.63
2023-05-09T08:08:03.128Z,95.63
2023-05-09T08:09:03.385Z,95.63
2023-05-09T08:10:03.183Z,95.63
2023-05-09T08:11:03.368Z,95.63
2023-05-09T08:12:03.228Z,95.63
2023-05-09T08:13:03.306Z,95.63
2023-05-09T08:14:03.415Z,95.63
2023-05-09T08:15:03.423Z,95.63
2023-05-09T08:16:03.642Z,95.63
2023-05-09T08:17:03.401Z,95.63
2023-05-09T08:18:03.456Z,95.63
2023-05-09T08:19:03.452Z,95.63
2023-05-09T08:20:03.517Z,95.63
2023-05-09T08:21:03.578Z,95.63
2023-05-09T08:22:03.557Z,101.25
2023-05-09T08:23:03.883Z,101.25
2023-05-09T08:24:03.601Z,101.25
2023-05-09T08:25:03.639Z,101.25
2023-05-09T08:26:03.688Z,101.25
2023-05-09T08:27:03.957Z,106.88
2023-05-09T08:28:03.739Z,106.88
2023-05-09T08:29:03.765Z,101.25
2023-05-09T08:30:04.095Z,101.25
2023-05-09T08:31:03.915Z,101.25
2023-05-09T08:33:04.006Z,101.25
2023-05-09T08:34:03.942Z,101.25
2023-05-09T08:35:03.990Z,101.25
2023-05-09T08:36:03.991Z,101.25
2023-05-09T08:37:04.315Z,101.25
2023-05-09T08:38:04.049Z,101.25
2023-05-09T08:39:04.079Z,101.25
2023-05-09T08:40:04.112Z,101.25
2023-05-09T08:41:04.235Z,101.25
2023-05-09T08:42:04.172Z,101.25
2023-05-09T08:43:04.334Z,101.25
2023-05-09T08:44:04.539Z,106.88
2023-05-09T08:45:04.263Z,106.88
2023-05-09T08:46:04.365Z,106.88
2023-05-09T08:47:04.345Z,106.88
2023-05-09T08:48:04.392Z,112.50
2023-05-09T08:49:04.398Z,112.50
2023-05-09T08:50:04.414Z,112.50
2023-05-09T08:51:04.769Z,112.50
2023-05-09T08:52:04.487Z,112.50
2023-05-09T08:53:04.516Z,112.50
2023-05-09T08:54:04.553Z,118.13
2023-05-09T08:55:04.606Z,123.75
2023-05-09T08:56:04.605Z,123.75
2023-05-09T08:57:04.670Z,123.75
2023-05-09T08:59:05.077Z,123.75
2023-05-09T09:00:04.739Z,123.75
2023-05-09T09:01:05.054Z,129.38
2023-05-09T09:02:05.117Z,129.38
2023-05-09T09:03:04.863Z,129.38
2023-05-09T09:04:04.865Z,135.00
2023-05-09T09:05:05.194Z,140.63
2023-05-09T09:06:05.222Z,146.25
2023-05-09T09:07:04.970Z,146.25
2023-05-09T09:08:04.985Z,146.25
2023-05-09T09:09:05.025Z,140.63
2023-05-09T09:10:05.055Z,146.25
2023-05-09T09:12:05.112Z,146.25
2023-05-09T09:14:05.182Z,151.88
2023-05-09T09:15:05.362Z,151.88
2023-05-09T09:17:05.279Z,157.50
2023-05-09T09:18:06.031Z,163.13
2023-05-09T09:19:05.326Z,168.75
2023-05-09T09:22:05.483Z,174.38
2023-05-09T09:23:05.531Z,174.38
2023-05-09T09:24:05.493Z,174.38
2023-05-09T09:25:05.540Z,180.00
2023-05-09T09:26:05.594Z,180.00
2023-05-09T09:27:05.688Z,180.00
2023-05-09T09:28:05.923Z,180.00
2023-05-09T09:29:05.650Z,180.00
2023-05-09T09:31:05.836Z,174.38
2023-05-09T09:32:05.780Z,174.38
2023-05-09T09:33:05.815Z,174.38
2023-05-09T09:34:05.809Z,174.38
2023-05-09T09:35:06.139Z,168.75
2023-05-09T09:36:05.874Z,168.75
2023-05-09T09:37:05.902Z,163.13
2023-05-09T09:38:05.942Z,163.13
2023-05-09T09:39:05.970Z,163.13
2023-05-09T09:40:06.017Z,163.13
2023-05-09T09:41:06.030Z,163.13
2023-05-09T09:42:06.364Z,163.13
2023-05-09T09:43:06.112Z,163.13
2023-05-09T09:44:06.130Z,163.13
2023-05-09T09:45:06.157Z,163.13
2023-05-09T09:46:06.225Z,163.13
2023-05-09T09:47:06.334Z,163.13
2023-05-09T09:48:06.630Z,163.13
2023-05-09T09:49:06.284Z,157.50
2023-05-09T09:50:06.327Z,163.13
2023-05-09T09:51:06.349Z,157.50
2023-05-09T09:52:06.384Z,157.50
2023-05-09T09:53:06.457Z,163.13
2023-05-09T09:54:06.738Z,163.13
2023-05-09T09:55:06.527Z,163.13
2023-05-09T09:56:06.508Z,168.75
2023-05-09T09:57:06.636Z,168.75
2023-05-09T09:58:06.576Z,174.38
2023-05-09T09:59:06.610Z,180.00
2023-05-09T10:00:06.633Z,185.63
2023-05-09T10:01:06.695Z,185.63
2023-05-09T10:02:07.998Z,185.63
2023-05-09T10:03:06.900Z,185.63
2023-05-09T10:04:06.800Z,191.25
2023-05-09T10:06:07.130Z,196.88
2023-05-09T10:07:06.864Z,196.88
2023-05-09T10:08:06.893Z,196.88
2023-05-09T10:09:06.926Z,202.50
2023-05-09T10:10:06.979Z,202.50
2023-05-09T10:12:07.028Z,202.50
2023-05-09T10:13:07.114Z,202.50
2023-05-09T10:14:07.086Z,202.50
2023-05-09T10:15:07.123Z,202.50
2023-05-09T10:16:07.259Z,202.50
2023-05-09T10:17:07.211Z,202.50
2023-05-09T10:18:07.343Z,202.50
2023-05-09T10:19:07.659Z,202.50
2023-05-09T10:20:07.285Z,202.50
2023-05-09T10:21:07.309Z,196.88
2023-05-09T10:22:07.339Z,196.88
2023-05-09T10:23:07.380Z,196.88
2023-05-09T10:24:07.406Z,196.88
2023-05-09T10:25:07.441Z,196.88
2023-05-09T10:26:07.771Z,196.88
2023-05-09T10:27:07.505Z,196.88
2023-05-09T10:28:07.533Z,196.88
2023-05-09T10:29:07.567Z,202.50
2023-05-09T10:30:07.597Z,202.50
2023-05-09T10:31:08.949Z,202.50
2023-05-09T10:32:07.673Z,202.50
2023-05-09T10:33:08.047Z,202.50
2023-05-09T10:34:07.736Z,202.50
2023-05-09T10:35:07.922Z,196.88
2023-05-09T10:36:07.800Z,191.25
2023-05-09T10:37:07.825Z,191.25
2023-05-09T10:38:07.877Z,191.25
2023-05-09T10:39:07.913Z,191.25
2023-05-09T10:40:07.926Z,196.88
2023-05-09T10:42:07.981Z,202.50
2023-05-09T10:44:08.051Z,208.13
2023-05-09T10:45:08.277Z,208.13
2023-05-09T10:46:08.586Z,208.13
2023-05-09T10:47:08.167Z,202.50
2023-05-09T10:48:08.293Z,196.88
2023-05-09T10:49:08.207Z,196.88
2023-05-09T10:50:08.244Z,191.25
2023-05-09T10:51:08.398Z,191.25
2023-05-09T10:52:08.625Z,191.25
2023-05-09T10:53:08.358Z,185.63
2023-05-09T10:54:08.378Z,185.63
2023-05-09T10:55:08.419Z,185.63
2023-05-09T10:58:08.502Z,185.63
2023-05-09T10:59:08.838Z,180.00
2023-05-09T11:00:08.564Z,180.00
2023-05-09T11:02:08.644Z,174.38
2023-05-09T11:03:08.855Z,163.13
2023-05-09T11:04:08.698Z,151.88
2023-05-09T11:05:09.344Z,140.63
2023-05-09T11:06:08.764Z,151.88
2023-05-09T11:07:08.930Z,163.13
2023-05-09T11:08:08.837Z,168.75
2023-05-09T11:09:08.868Z,191.25
2023-05-09T11:10:08.921Z,191.25
2023-05-09T11:11:08.926Z,191.25
2023-05-09T11:12:09.257Z,196.88
2023-05-09T11:13:09.041Z,196.88
2023-05-09T11:14:09.030Z,191.25
2023-05-09T11:15:09.057Z,185.63
2023-05-09T11:16:09.742Z,191.25
2023-05-09T11:17:09.131Z,191.25
2023-05-09T11:18:09.197Z,168.75
2023-05-09T11:19:09.486Z,163.13
2023-05-09T11:20:09.221Z,168.75
2023-05-09T11:21:09.255Z,174.38
2023-05-09T11:22:09.288Z,180.00
2023-05-09T11:23:09.441Z,180.00
2023-05-09T11:24:09.358Z,174.38
2023-05-09T11:25:09.393Z,163.13
2023-05-09T11:26:09.426Z,151.88
2023-05-09T11:27:09.453Z,157.50
2023-05-09T11:28:09.519Z,180.00
2023-05-09T11:29:09.543Z,202.50
2023-05-09T11:30:09.582Z,208.13
2023-05-09T11:31:09.577Z,213.75
2023-05-09T11:32:10.137Z,208.13
2023-05-09T11:33:09.675Z,208.13
2023-05-09T11:34:09.845Z,208.13
2023-05-09T11:35:09.870Z,208.13
2023-05-09T11:36:09.746Z,208.13
2023-05-09T11:37:09.776Z,208.13
2023-05-09T11:38:09.859Z,213.75
2023-05-09T11:39:10.263Z,213.75
2023-05-09T11:40:09.883Z,208.13
2023-05-09T11:41:09.915Z,208.13
2023-05-09T11:42:09.942Z,208.13
2023-05-09T11:43:10.172Z,202.50
2023-05-09T11:44:10.007Z,202.50
2023-05-09T11:45:10.095Z,202.50
2023-05-09T11:46:10.424Z,202.50
2023-05-09T11:47:10.201Z,208.13
2023-05-09T11:48:10.218Z,213.75
2023-05-09T11:49:12.006Z,213.75
2023-05-09T11:50:10.224Z,213.75
2023-05-09T11:51:10.239Z,213.75
2023-05-09T11:52:10.482Z,202.50
2023-05-09T11:53:10.597Z,191.25
2023-05-09T11:54:10.330Z,196.88
2023-05-09T11:55:12.492Z,202.50
2023-05-09T11:56:10.401Z,191.25
2023-05-09T11:57:10.431Z,180.00
2023-05-09T11:58:10.555Z,174.38
2023-05-09T11:59:10.511Z,174.38
2023-05-09T12:00:10.801Z,180.00
2023-05-09T12:01:11.963Z,185.63
2023-05-09T12:02:10.603Z,180.00
2023-05-09T12:03:10.758Z,168.75
2023-05-09T12:04:10.676Z,174.38
2023-05-09T12:05:10.718Z,180.00
2023-05-09T12:06:11.017Z,185.63
2023-05-09T12:07:10.755Z,191.25
2023-05-09T12:08:10.794Z,196.88
2023-05-09T12:09:10.834Z,196.88
2023-05-09T12:10:10.867Z,202.50
2023-05-09T12:11:11.059Z,213.75
2023-05-09T12:12:11.181Z,213.75
2023-05-09T12:13:11.003Z,213.75
2023-05-09T12:14:11.000Z,219.38
2023-05-09T12:15:11.026Z,213.75
2023-05-09T12:16:11.149Z,213.75
2023-05-09T12:17:11.103Z,213.75
2023-05-09T12:18:11.439Z,219.38
2023-05-09T12:19:11.169Z,219.38
2023-05-09T12:20:11.293Z,219.38
2023-05-09T12:21:11.333Z,219.38
2023-05-09T12:23:11.279Z,219.38
2023-05-09T12:24:11.311Z,219.38
2023-05-09T12:25:11.661Z,219.38
2023-05-09T12:27:11.530Z,219.38
2023-05-09T12:28:11.447Z,219.38
2023-05-09T12:29:11.483Z,219.38
2023-05-09T12:30:11.513Z,219.38
2023-05-09T12:31:11.622Z,219.38
2023-05-09T12:32:11.898Z,219.38
2023-05-09T12:33:11.615Z,213.75
2023-05-09T12:34:11.639Z,213.75
2023-05-09T12:36:11.718Z,202.50
2023-05-09T12:37:11.754Z,196.88
2023-05-09T12:38:11.795Z,196.88
2023-05-09T12:39:12.180Z,191.25
2023-05-09T12:40:11.871Z,174.38
2023-05-09T12:41:22.481Z,163.13
2023-05-09T12:42:11.933Z,151.88
2023-05-09T12:43:12.112Z,140.63
2023-05-09T12:44:11.988Z,135.00
2023-05-09T12:45:12.110Z,129.38
2023-05-09T12:46:12.060Z,129.38
2023-05-09T12:47:12.087Z,129.38
2023-05-09T12:48:12.160Z,140.63
2023-05-09T12:49:12.241Z,151.88
2023-05-09T12:50:12.197Z,163.13
2023-05-09T12:51:12.209Z,174.38
2023-05-09T12:52:12.237Z,180.00
2023-05-09T12:53:12.335Z,185.63
2023-05-09T12:54:13.009Z,185.63
2023-05-09T12:55:12.759Z,185.63
2023-05-09T12:56:12.369Z,180.00
2023-05-09T12:57:12.399Z,174.38
2023-05-09T16:15:43.225Z,33.75
2023-05-09T16:16:43.093Z,33.75
2023-05-09T16:17:43.111Z,33.75
2023-05-09T16:18:43.158Z,33.75
2023-05-09T16:19:43.182Z,33.75
2023-05-09T16:20:43.211Z,33.75
2023-05-09T16:43:10.990Z,28.13
2023-05-09T16:44:10.564Z,28.13
2023-05-09T16:45:10.594Z,28.13
2023-05-09T16:46:10.682Z,28.13
2023-05-09T16:47:10.656Z,28.13
2023-05-09T16:48:10.755Z,28.13
2023-05-09T16:49:11.027Z,28.13
2023-05-09T16:50:10.953Z,28.13
2023-05-09T16:51:10.798Z,28.13
2023-05-09T16:52:10.811Z,28.13
2023-05-09T17:17:01.230Z,11.25
2023-05-09T17:18:00.962Z,11.25
2023-05-09T17:19:00.937Z,11.25
2023-05-09T17:20:00.983Z,5.63
2023-05-09T17:21:00.994Z,5.63
2023-05-09T17:22:01.030Z,11.25
2023-05-09T17:23:01.304Z,11.25
2023-05-09T17:24:01.101Z,11.25
2023-05-09T17:25:01.128Z,11.25
2023-05-09T17:26:01.160Z,5.63
2023-05-09T17:28:01.210Z,0.00
2023-05-09T17:29:01.238Z,0.00
2023-05-09T17:30:01.579Z,0.00
2023-05-09T17:31:01.307Z,0.00
2023-05-09T17:32:01.692Z,0.00
2023-05-09T17:33:01.540Z,0.00
2023-05-09T17:34:01.404Z,0.00
2023-05-09T17:46:39.916Z,11.25
2023-05-09T17:47:39.910Z,11.25